• Join FlightAware (Why Join?)
  • Login
  • US Flag 
08:33PM EDT


 

Airport Tracker/Info


-or-


 

Live Flight TrackerFlight Track Log ✈ CPZ5750 ✈ 08-Jul-2013 ✈ KMSP - KALB

Flight Track Log - Related Links

Times and Time Zones

All times are in EDT time to prevent confusion due to time zone crossing. See the CPZ5750 flight status page for this flight to view local times or setup timezone preferences in your user account.

Time Position Orientation Groundspeed Altitude Reporting Facility
EDT Latitude Longitude Course Direction KTS MPH feet Rate Location/Type
04:36PM 44.9333 -93.2333 65° Northeast 171 197 2,400  Level Minneapolis TRACON
04:36PM 44.9497 -93.2394 345° North 192 221 2,900 960 Climbing Minneapolis Center
04:37PM 45.0189 -93.2383 North 252 290 4,000 1,980 Climbing Minneapolis Center
04:38PM 45.0482 -92.5900 68° East  Level FlightAware Approximate
04:38PM 45.0897 -93.1644 36° Northeast 266 306 7,100  Level Minneapolis Center
04:39PM 45.0920 -92.4321 70° East  Level FlightAware Approximate
04:39PM 45.1464 -93.0861 44° Northeast 283 326 9,400  Level Minneapolis Center
04:40PM 45.1282 -92.2710 70° East  Level FlightAware Approximate
04:40PM 45.1742 -92.9697 71° East 308 354 11,300  Level Minneapolis Center
04:41PM 45.1690 -92.1096 65° Northeast  Level FlightAware Approximate
04:42PM 45.1994 -92.8378 75° East 341 392 12,900  Level Minneapolis Center
04:43PM 45.2311 -92.6661 75° East 373 429 15,000 1,740 Climbing Minneapolis Center
04:44PM 45.2581 -92.5186 75° East 387 445 16,600 1,440 Climbing Minneapolis Center
04:45PM 45.2800 -92.3953 76° East 399 459 18,000 1,680 Climbing Minneapolis Center
04:46PM 45.3186 -92.1758 76° East 413 475 20,100 1,560 Climbing Minneapolis Center
04:47PM 45.3478 -92.0100 76° East 430 495 21,300 1,260 Climbing Minneapolis Center
04:48PM 45.3775 -91.8394 76° East 443 510 22,800 1,320 Climbing Minneapolis Center
04:49PM 45.4072 -91.6686 76° East 446 513 24,100 1,200 Climbing Minneapolis Center
04:50PM 45.4344 -91.4956 77° East 449 517 25,400 1,560 Climbing Minneapolis Center
04:51PM 45.4681 -91.2919 77° East 444 511 27,400 1,440 Climbing Minneapolis Center
04:52PM 45.4964 -91.1375 75° East 440 506 28,400 960 Climbing Minneapolis Center
04:53PM 45.5247 -90.9656 77° East 444 511 29,500 1,020 Climbing Minneapolis Center
04:54PM 45.5533 -90.7936 77° East 446 513 30,600 1,140 Climbing Minneapolis Center
04:55PM 45.5867 -90.5867 77° East 447 514 31,900 1,020 Climbing Minneapolis Center
04:56PM 45.6147 -90.4156 77° East 445 512 32,800 660 Climbing Minneapolis Center
04:57PM 45.6414 -90.2425 78° East 448 516 33,300 480 Climbing Minneapolis Center
04:58PM 45.6692 -90.0647 77° East 457 526 33,900 480 Climbing Minneapolis Center
04:59PM 45.6967 -89.8886 77° East 457 526 34,400 480 Climbing Minneapolis Center
05:00PM 45.7250 -89.7036 78° East 461 531 35,000 240 Climbing Minneapolis Center
05:01PM 45.7572 -89.4892 78° East 468 539 35,000  Level Minneapolis Center
05:02PM 45.7869 -89.2972 77° East 482 555 35,000  Level Minneapolis Center
05:03PM 45.8167 -89.1036 78° East 492 566 35,000  Level Minneapolis Center
05:04PM 45.8419 -88.9208 79° East 495 570 35,000  Level Minneapolis Center
05:05PM 45.8756 -88.6908 78° East 497 572 35,000  Level Minneapolis Center
05:06PM 45.9031 -88.4989 78° East 495 570 35,000  Level Minneapolis Center
05:07PM 45.9303 -88.3053 79° East 496 571 35,000  Level Minneapolis Center
05:09PM 45.9603 -88.0864 79° East 495 570 35,000  Level Minneapolis Center
05:10PM 45.9864 -87.8917 79° East 496 571 35,000  Level Minneapolis Center
05:11PM 46.0133 -87.6989 79° East 493 567 35,000  Level Minneapolis Center
05:12PM 46.0394 -87.5050 79° East 493 567 35,000  Level Minneapolis Center
05:13PM 46.0639 -87.3094 80° East 495 570 35,000  Level Minneapolis Center
05:14PM 46.0897 -87.1144 79° East 495 570 35,000  Level Minneapolis Center
05:15PM 46.1133 -86.9228 80° East 489 563 35,000  Level Minneapolis Center
05:16PM 46.1428 -86.6919 79° East 486 559 35,000  Level Minneapolis Center
05:17PM 46.1669 -86.5008 80° East 485 558 35,000  Level Minneapolis Center
05:18PM 46.1903 -86.3103 80° East 481 554 35,000  Level Minneapolis Center
05:19PM 46.2128 -86.1161 80° East 488 562 35,000  Level Minneapolis Center
05:20PM 46.2350 -85.9258 80° East 483 556 35,000  Level Minneapolis Center
05:21PM 46.2575 -85.7339 80° East 483 556 35,000  Level Minneapolis Center
05:22PM 46.2844 -85.5047 80° East 482 555 35,000  Level Minneapolis Center
05:23PM 46.3061 -85.3136 81° East 482 555 35,000  Level Minneapolis Center
05:24PM 46.3264 -85.1192 81° East 487 560 35,000  Level Minneapolis Center
05:25PM 46.3500 -84.8667 82° East 480 552 35,000  Level Toronto Center
05:26PM 46.3500 -84.6833 90° East 500 575 35,000  Level Toronto Center
05:27PM 46.3833 -84.4833 76° East 480 552 35,000  Level Toronto Center
05:28PM 46.3833 -84.3000 90° East 480 552 35,000  Level Toronto Center
05:29PM 46.4000 -84.1000 83° East 480 552 35,000  Level Toronto Center
05:30PM 46.4000 -83.9167 90° East 480 552 35,000  Level Toronto Center
05:31PM 46.4167 -83.7167 83° East 480 552 35,000  Level Toronto Center
05:32PM 46.4000 -83.5167 97° East 480 552 35,000  Level Toronto Center
05:33PM 46.4000 -83.3333 90° East 480 552 35,000  Level Toronto Center
05:34PM 46.4167 -83.1333 83° East 480 552 35,000  Level Toronto Center
05:35PM 46.4000 -82.9500 97° East 480 552 35,000  Level Toronto Center
05:36PM 46.4000 -82.7333 90° East 490 564 35,000  Level Toronto Center
05:37PM 46.4167 -82.5333 83° East 490 564 35,000  Level Toronto Center
05:38PM 46.4000 -82.3333 97° East 490 564 35,000  Level Toronto Center
05:39PM 46.4000 -82.1500 90° East 490 564 35,000  Level Toronto Center
05:40PM 46.4167 -81.9500 83° East 500 575 35,000  Level Toronto Center
05:41PM 46.4000 -81.7333 96° East 500 575 35,000  Level Toronto Center
05:42PM 46.4000 -81.5333 90° East 500 575 35,000  Level Toronto Center
05:43PM 46.3833 -81.3167 96° East 500 575 35,000  Level Toronto Center
05:44PM 46.3833 -81.1333 90° East 500 575 35,000  Level Toronto Center
05:45PM 46.3833 -80.9333 90° East 500 575 35,000  Level Toronto Center
05:46PM 46.3833 -80.7167 90° East 500 575 35,000  Level Toronto Center
05:47PM 46.3833 -80.5333 90° East 510 587 35,000  Level Toronto Center
05:48PM 46.3833 -80.3333 90° East 510 587 35,000  Level Toronto Center
05:49PM 46.3667 -80.1167 96° East 510 587 35,000  Level Toronto Center
05:50PM 46.3667 -79.9167 90° East 510 587 35,000  Level Toronto Center
05:51PM 46.3667 -79.7333 90° East 510 587 35,000  Level Toronto Center
05:52PM 46.3500 -79.4833 95° East 510 587 35,000  Level Toronto Center
05:53PM 46.3333 -79.3000 97° East 520 598 35,000  Level Toronto Center
05:54PM 46.3167 -79.1000 97° East 510 587 35,000  Level Toronto Center
05:55PM 46.3000 -78.9000 97° East 520 598 35,000  Level Toronto Center
05:56PM 46.2667 -78.6833 102° East 500 575 35,000  Level Toronto Center
05:57PM 46.2500 -78.5000 97° East 500 575 35,000  Level Toronto Center
05:58PM 46.2167 -78.2833 102° East 500 575 35,000  Level Toronto Center
05:59PM 46.2000 -78.0833 97° East 510 587 35,000  Level Toronto Center
06:00PM 46.1667 -77.9000 105° East 510 587 35,000  Level Toronto Center
06:01PM 46.1500 -77.7000 97° East 510 587 35,000  Level Toronto Center
06:02PM 46.1333 -77.5167 97° East 510 587 35,000  Level Toronto Center
06:03PM 46.0833 -77.3000 108° East 510 587 35,000  Level Toronto Center
06:05PM 46.0333 -76.9000 100° East 510 587 35,000  Level Toronto Center
06:06PM 46.0167 -76.7000 97° East 510 587 35,000  Level Toronto Center
06:07PM 45.9833 -76.5167 105° East 510 587 35,000  Level Toronto Center
06:08PM 45.9667 -76.3000 96° East 510 587 35,000  Level Toronto Center
06:09PM 45.9333 -76.1000 103° East 510 587 35,000  Level Toronto Center
06:10PM 45.9000 -75.9000 103° East 510 587 35,000  Level Toronto Center
06:11PM 45.8500 -75.7333 113° Southeast 500 575 35,000  Level Toronto Center
06:12PM 45.7500 -75.5667 131° Southeast 490 564 35,000  Level Toronto Center
06:13PM 45.6500 -75.4333 137° Southeast 490 564 35,000  Level Toronto Center
06:14PM 45.5667 -75.3000 132° Southeast 490 564 35,000  Level Toronto Center
06:15PM 45.4667 -75.1667 137° Southeast 490 564 35,000  Level Toronto Center
06:16PM 45.3667 -75.0333 137° Southeast 490 564 35,000  Level Toronto Center
06:17PM 45.2667 -74.9000 137° Southeast 490 564 35,000  Level Toronto Center
06:18PM 45.1833 -74.7500 128° Southeast 490 564 35,000  Level Toronto Center
06:19PM 45.0833 -74.6167 137° Southeast 490 564 35,000  Level Toronto Center
06:20PM 44.9833 -74.4833 137° Southeast 490 564 35,000  Level Toronto Center
06:21PM 44.9000 -74.3500 131° Southeast 490 564 35,000  Level Toronto Center
06:22PM 44.8583 -74.3317 163° South 490 564 35,000  Level Boston Center
06:23PM 44.7519 -74.2172 143° Southeast 490 564 35,000  Level Boston Center
06:24PM 44.6192 -74.1811 169° South 472 543 35,000 -540 Level Boston Center
06:25PM 44.4861 -74.1511 171° South 472 543 34,000 -1,500 Descending Boston Center
06:26PM 44.3531 -74.1239 172° South 485 558 32,000 -2,400 Descending Boston Center
06:27PM 44.2222 -74.0942 171° South 485 558 29,300 -3,060 Descending Boston Center
06:28PM 44.0894 -74.0703 173° South 455 524 25,900 -3,240 Descending Boston Center
06:29PM 43.9731 -74.0469 172° South 434 499 22,900 -3,000 Descending Boston Center
06:30PM 43.8608 -74.0239 172° South 422 486 19,900 -2,700 Descending Boston Center
06:31PM 43.7486 -73.9978 170° South 422 486 17,500 -2,340 Descending Boston Center
06:32PM 43.6569 -73.9869 175° South 395 455 15,300 -2,640 Descending Boston Center
06:33PM 43.5586 -74.0272 197° South 353 406 12,500 -2,160 Descending Boston Center
06:34PM 43.4725 -74.0681 199° South 355 409 11,000 -720 Descending Boston Center
06:35PM 43.3719 -74.1053 195° South 295 339 11,000  Level Boston Center
06:36PM 43.2978 -74.0519 152° Southeast 296 341 11,000 -360 Level Boston Center
06:37PM 43.2442 -74.0106 151° Southeast 299 344 10,400 -1,020 Descending Boston Center
06:38PM 43.1742 -73.9433 145° Southeast 302 348 9,200 -1,620 Descending Boston Center
06:39PM 43.1019 -73.8761 146° Southeast 294 338 7,200 -1,800 Descending Boston Center
06:40PM 43.0339 -73.8150 147° Southeast 286 329 5,600 -1,020 Descending Boston Center
06:41PM 42.9578 -73.7422 145° Southeast 287 330 5,000 -420 Descending Boston Center
06:42PM 42.8872 -73.7011 157° South 276 318 4,800 -480 Descending Boston Center
06:43PM 42.8083 -73.6967 178° South 273 314 4,100 -660 Descending Boston Center
06:44PM 42.7292 -73.6867 175° South 271 312 3,500 -780 Descending Boston Center
06:45PM 42.6708 -73.6853 179° South 270 311 2,600 -780 Descending Boston Center
06:46PM 42.6389 -73.7469 235° Southwest 210 242 2,100 -540 Descending Boston Center